Terminal Aerodrome Forecast
Issued by NWS Portland, OR

Home | Current Version | Previous Version | Text Only | Print | Product List | Glossary On
Versions: 1 2 3 4 5 6 7 8 9 10 11 12 13 14 15 16 17 18 19 20 21 22 23 24 25 26 27 28 29 30 31 32 33 34 35 36 37 38 39 40
000
FTUS46 KPQR 281356 AAA
TAFAST
TAF AMD
KAST 281356Z 2814/2912 23007KT 4SM -RA SCT007 OVC015
      TEMPO 2814/2816 2SM RA BKN007
     FM281600 22012G20KT 4SM -RA BR OVC015
     FM281800 29011KT P6SM -SHRA BKN025 OVC040
     FM282100 30007KT P6SM VCSH SCT025 BKN040
     FM290300 27007KT 6SM -DZ SCT025 BKN035 BKN050=

USA.gov is the U.S. government's official web portal to all federal, state and local government web resources and services.